Time;durP1;ratioP1;P1;durP2;ratioP2;P2;SDS_P1;SDS_P2;PMS_P1;PMS_P2;Temp;Humidity;BMP_temperature;BMP_pressure;BME280_temperature;BME280_humidity;BME280_pressure;Samples;Min_cycle;Max_cycle;Signal;HPM_P1;HPM_P2
2021/03/20 00:01:05;;;;;;;10.88;5.95;;;;;;;2.04;60.18;97991.84;5027381;28;20262;-76
2021/03/20 00:03:30;;;;;;;10.40;5.30;;;;;;;2.24;59.53;97991.41;5006740;28;20122;-76
2021/03/20 00:05:56;;;;;;;7.00;3.95;;;;;;;2.21;60.36;97989.97;4993192;28;20080;-76
2021/03/20 00:08:22;;;;;;;6.03;3.67;;;;;;;2.22;60.33;97988.22;5007190;28;20037;-76
2021/03/20 00:10:48;;;;;;;6.55;3.45;;;;;;;2.09;60.47;97982.81;4991933;28;20071;-76
2021/03/20 00:13:15;;;;;;;6.95;3.55;;;;;;;2.04;60.54;97981.56;5011295;28;20036;-76
2021/03/20 00:15:40;;;;;;;5.93;3.20;;;;;;;2.14;60.16;97989.06;4996571;28;20037;-76
2021/03/20 00:18:06;;;;;;;4.93;2.92;;;;;;;2.13;60.26;97990.03;5012769;28;20602;-76
2021/03/20 00:20:36;;;;;;;6.00;3.03;;;;;;;1.95;60.54;97986.91;5025887;28;20095;-76
2021/03/20 00:23:03;;;;;;;4.28;2.70;;;;;;;2.12;60.05;97987.63;5043536;28;20029;-76
2021/03/20 00:25:28;;;;;;;4.18;2.25;;;;;;;2.08;59.78;97983.81;5009181;28;20044;-76
2021/03/20 00:27:55;;;;;;;6.43;2.97;;;;;;;2.04;60.39;97983.34;5016455;28;20031;-76
2021/03/20 00:30:21;;;;;;;5.00;2.70;;;;;;;2.09;59.80;97982.81;5016142;28;20025;-76
2021/03/20 00:32:47;;;;;;;4.15;2.47;;;;;;;2.02;60.60;97980.94;4998881;28;20032;-77
2021/03/20 00:35:14;;;;;;;5.93;2.80;;;;;;;1.93;60.50;97978.59;5016195;28;20464;-77
2021/03/20 00:37:43;;;;;;;5.57;3.25;;;;;;;1.99;60.74;97977.94;5027527;28;20051;-76
2021/03/20 00:40:12;;;;;;;5.22;2.35;;;;;;;1.81;60.59;97975.59;5015995;28;20040;-76
2021/03/20 00:42:37;;;;;;;6.20;3.53;;;;;;;1.89;60.87;97980.69;5015494;28;20293;-76
2021/03/20 00:45:05;;;;;;;6.53;4.07;;;;;;;1.76;60.93;97962.47;5032429;28;20021;-77
2021/03/20 00:47:30;;;;;;;5.95;3.88;;;;;;;1.86;61.04;97968.19;5012411;28;20518;-76
2021/03/20 00:49:55;;;;;;;7.32;3.13;;;;;;;1.89;61.01;97972.19;5032286;28;20036;-76
2021/03/20 00:52:21;;;;;;;3.85;2.70;;;;;;;1.91;60.96;97976.19;5031934;28;20033;-77
2021/03/20 00:54:46;;;;;;;5.88;3.20;;;;;;;1.87;60.71;97969.78;4998633;28;20115;-77
2021/03/20 00:57:12;;;;;;;3.58;2.35;;;;;;;1.90;61.01;97974.56;5011345;28;20031;-77
2021/03/20 00:59:38;;;;;;;6.38;2.78;;;;;;;1.85;61.34;97969.16;5032380;28;20040;-77
2021/03/20 01:02:03;;;;;;;5.50;3.17;;;;;;;1.84;60.89;97980.41;4998980;28;20053;-77
2021/03/20 01:04:28;;;;;;;7.00;2.72;;;;;;;1.85;60.92;97976.84;5015374;28;20452;-77
2021/03/20 01:06:56;;;;;;;4.32;2.47;;;;;;;1.77;61.46;97974.34;5015984;28;20044;-77
2021/03/20 01:09:22;;;;;;;5.22;3.03;;;;;;;1.75;61.04;97963.41;5020918;28;20071;-77
2021/03/20 01:11:47;;;;;;;6.20;2.83;;;;;;;1.78;61.15;97966.47;5031260;28;20053;-77
2021/03/20 01:14:12;;;;;;;5.25;3.20;;;;;;;1.80;60.66;97979.13;5015190;28;20032;-77
2021/03/20 01:16:38;;;;;;;6.47;3.58;;;;;;;1.66;60.79;97965.22;5015294;28;20036;-77
2021/03/20 01:19:03;;;;;;;4.28;3.08;;;;;;;1.57;60.79;97985.00;5014378;28;20044;-77
2021/03/20 01:21:29;;;;;;;5.38;3.42;;;;;;;1.63;60.92;97986.91;5000664;28;20448;-77
2021/03/20 01:23:54;;;;;;;6.68;3.95;;;;;;;1.35;61.95;97986.50;5014782;28;20029;-77
2021/03/20 01:26:20;;;;;;;9.63;5.75;;;;;;;1.47;61.62;97984.41;5029389;28;20155;-77
2021/03/20 01:28:45;;;;;;;10.13;5.82;;;;;;;1.53;61.42;97990.66;5031008;28;20087;-77
2021/03/20 01:31:16;;;;;;;11.07;6.28;;;;;;;1.44;60.82;98000.13;5015348;28;20052;-77
2021/03/20 01:33:41;;;;;;;17.27;6.95;;;;;;;1.54;60.69;97985.31;5031061;28;20396;-77
2021/03/20 01:36:07;;;;;;;13.57;7.10;;;;;;;1.59;60.07;97997.66;5012954;28;20029;-77
2021/03/20 01:38:33;;;;;;;13.02;6.15;;;;;;;1.54;61.04;97992.22;5011071;28;20045;-77
2021/03/20 01:41:16;;;;;;;10.82;5.53;;;;;;;1.40;61.13;97999.66;5014602;28;20059;-77
2021/03/20 01:43:45;;;;;;;9.73;5.13;;;;;;;1.65;61.36;97999.59;4997145;28;20525;-77
2021/03/20 01:46:36;;;;;;;9.95;4.35;;;;;;;1.39;61.82;97997.25;5014710;28;20479;-77
2021/03/20 01:49:24;;;;;;;8.82;4.30;;;;;;;1.63;60.87;97997.19;5048085;28;20110;-77
2021/03/20 01:51:55;;;;;;;10.27;4.90;;;;;;;1.56;61.52;97996.25;5032735;28;20388;-77
2021/03/20 01:54:22;;;;;;;8.48;4.72;;;;;;;1.77;61.80;98000.03;5025325;28;20372;-77
2021/03/20 01:56:48;;;;;;;9.55;4.97;;;;;;;1.78;61.81;97996.47;5030396;28;20032;-77
2021/03/20 01:59:15;;;;;;;10.57;4.72;;;;;;;1.74;61.38;97990.88;5002773;28;20123;-77
2021/03/20 02:01:40;;;;;;;6.03;3.47;;;;;;;1.86;61.66;97991.28;5017908;28;20033;-77
2021/03/20 02:04:06;;;;;;;4.53;3.00;;;;;;;1.90;61.35;97994.31;5039612;23;20048;-76
2021/03/20 02:06:34;;;;;;;5.75;3.33;;;;;;;1.90;61.59;97989.97;5065959;28;20043;-76
2021/03/20 02:09:03;;;;;;;5.85;3.50;;;;;;;1.86;61.57;97996.44;5059241;28;20366;-76
2021/03/20 02:11:45;;;;;;;5.53;3.38;;;;;;;1.68;61.81;97996.69;5086931;28;20709;-76
2021/03/20 02:14:24;;;;;;;4.75;2.90;;;;;;;1.81;61.92;97998.69;5080280;28;20028;-76
2021/03/20 02:16:49;;;;;;;4.50;2.92;;;;;;;2.10;61.84;97992.94;5087527;28;20032;-76
2021/03/20 02:19:42;;;;;;;6.28;3.25;;;;;;;1.92;61.89;97992.38;5082571;28;20079;-76
2021/03/20 02:22:18;;;;;;;5.18;2.83;;;;;;;1.95;61.44;97986.91;5084889;28;20115;-76
2021/03/20 02:25:20;;;;;;;6.40;2.92;;;;;;;1.96;61.78;97991.88;5046824;28;20036;-76
2021/03/20 02:28:26;;;;;;;5.93;3.45;;;;;;;1.97;61.83;97996.06;5069255;28;20719;-76
2021/03/20 02:31:10;;;;;;;5.85;2.83;;;;;;;1.94;61.57;97982.78;5065668;28;20229;-76
2021/03/20 02:33:47;;;;;;;6.00;3.20;;;;;;;1.95;61.37;97980.00;5075160;28;20533;-76
2021/03/20 02:36:20;;;;;;;5.82;3.22;;;;;;;2.05;60.60;97978.03;5064143;28;20278;-76
2021/03/20 02:38:53;;;;;;;6.75;3.25;;;;;;;1.98;61.36;97982.25;5070335;28;20040;-76
2021/03/20 02:41:22;;;;;;;5.68;3.10;;;;;;;2.10;60.52;97989.56;5087490;28;20028;-76
2021/03/20 02:43:54;;;;;;;5.60;3.38;;;;;;;1.97;60.76;97987.53;5068293;28;20036;-76
2021/03/20 02:46:39;;;;;;;8.15;3.70;;;;;;;1.77;60.62;97989.75;5057659;28;20111;-76
2021/03/20 02:49:10;;;;;;;5.38;2.95;;;;;;;1.86;60.09;97983.59;5074276;28;20028;-76
2021/03/20 02:51:49;;;;;;;4.53;2.92;;;;;;;1.66;60.78;97989.16;5072618;28;20101;-75
2021/03/20 02:54:37;;;;;;;4.90;3.20;;;;;;;1.60;61.55;97984.66;5086944;28;20032;-76
2021/03/20 02:57:14;;;;;;;6.07;3.10;;;;;;;1.69;61.69;97980.31;5084571;28;20059;-76
2021/03/20 02:59:42;;;;;;;5.65;3.35;;;;;;;1.79;61.14;97972.41;5071020;28;20130;-76
2021/03/20 03:02:10;;;;;;;7.78;4.22;;;;;;;1.72;61.35;97976.63;5087356;28;20478;-76
2021/03/20 03:05:08;;;;;;;5.60;3.22;;;;;;;1.68;61.73;97982.06;5069874;28;20044;-75
2021/03/20 03:07:41;;;;;;;6.50;3.53;;;;;;;1.66;61.19;97980.63;5057864;28;20075;-76
2021/03/20 03:10:26;;;;;;;5.60;3.22;;;;;;;1.55;61.49;97975.88;5084232;28;20042;-76
2021/03/20 03:13:00;;;;;;;6.22;3.78;;;;;;;1.56;61.79;97965.44;5087219;28;20115;-76
2021/03/20 03:15:28;;;;;;;6.53;3.65;;;;;;;1.73;61.79;97980.75;5060234;28;20042;-76
2021/03/20 03:18:02;;;;;;;6.35;3.70;;;;;;;1.61;61.31;97975.19;5047260;28;20040;-76
2021/03/20 03:20:32;;;;;;;6.20;3.80;;;;;;;1.73;61.17;97970.50;5070415;28;20089;-76
2021/03/20 03:23:05;;;;;;;4.65;3.30;;;;;;;1.68;60.95;97979.50;5069985;28;20119;-76
2021/03/20 03:25:31;;;;;;;5.57;3.72;;;;;;;1.78;61.45;97978.50;5080607;28;20028;-76
2021/03/20 03:28:00;;;;;;;6.68;3.55;;;;;;;1.73;61.61;97983.34;5086597;28;20044;-76
2021/03/20 03:30:27;;;;;;;5.50;3.72;;;;;;;1.79;61.42;97987.81;5047225;28;20123;-76
2021/03/20 03:33:09;;;;;;;6.90;4.00;;;;;;;1.52;61.25;97994.97;5086958;28;20024;-76
2021/03/20 03:35:48;;;;;;;7.38;3.47;;;;;;;1.40;61.94;98004.00;5070545;28;20034;-76
2021/03/20 03:38:20;;;;;;;7.05;4.13;;;;;;;1.58;61.39;98007.16;5070049;28;20413;-76
2021/03/20 03:40:57;;;;;;;5.97;3.72;;;;;;;1.32;61.78;98022.78;5080149;28;20029;-76
2021/03/20 03:43:22;;;;;;;6.68;4.15;;;;;;;1.67;61.16;98008.69;5075648;28;20032;-76
2021/03/20 03:45:48;;;;;;;6.90;4.50;;;;;;;1.64;61.16;98003.91;5084123;28;20080;-76
2021/03/20 03:48:15;;;;;;;6.75;4.03;;;;;;;1.66;61.21;98006.28;5070135;28;20379;-76
2021/03/20 03:50:42;;;;;;;6.57;3.47;;;;;;;1.67;60.90;98010.47;5089365;28;20109;-76
2021/03/20 03:53:09;;;;;;;6.45;3.40;;;;;;;1.69;60.96;98008.53;5084010;28;20073;-76
2021/03/20 03:55:35;;;;;;;6.75;3.90;;;;;;;1.80;61.46;98017.63;5067144;28;20036;-76
2021/03/20 03:58:24;;;;;;;5.82;4.05;;;;;;;1.46;61.36;98023.88;5066031;28;20419;-76
2021/03/20 04:00:57;;;;;;;5.97;3.30;;;;;;;1.64;61.20;98015.94;5084383;28;20032;-76
2021/03/20 04:03:30;;;;;;;6.93;3.67;;;;;;;1.59;60.51;98013.84;5066531;28;20486;-76
2021/03/20 04:06:16;;;;;;;4.85;3.38;;;;;;;1.50;61.34;98020.78;5089805;28;20040;-76
2021/03/20 04:08:42;;;;;;;5.70;3.65;;;;;;;1.83;61.05;98019.88;5085735;28;20551;-76
2021/03/20 04:11:10;;;;;;;7.32;4.10;;;;;;;1.62;60.91;98017.88;5065025;28;20028;-76
2021/03/20 04:13:49;;;;;;;6.70;3.58;;;;;;;1.49;60.79;98020.94;5079263;28;20040;-76
2021/03/20 04:16:17;;;;;;;8.82;3.47;;;;;;;1.58;60.86;98021.75;5056883;28;20027;-76
2021/03/20 04:19:40;;;;;;;5.63;3.38;;;;;;;1.20;61.15;98032.59;5066723;28;20072;-76
2021/03/20 04:22:09;;;;;;;7.82;3.85;;;;;;;1.43;61.79;98044.72;5034611;28;20112;-76
2021/03/20 04:24:51;;;;;;;7.75;4.28;;;;;;;1.34;61.87;98046.50;5012255;28;20442;-76
2021/03/20 04:27:19;;;;;;;6.45;3.50;;;;;;;1.44;61.07;98044.56;5009644;28;20040;-76
2021/03/20 04:30:11;;;;;;;5.15;3.67;;;;;;;1.16;61.81;98033.06;5023498;28;20041;-76
2021/03/20 04:32:42;;;;;;;7.30;3.80;;;;;;;1.22;61.52;98033.22;5030270;28;20036;-76
2021/03/20 04:35:23;;;;;;;6.15;3.35;;;;;;;1.03;61.39;98029.25;5025904;28;20421;-76
2021/03/20 04:37:51;;;;;;;5.70;3.97;;;;;;;1.18;61.73;98021.66;5042081;28;20091;-76
2021/03/20 04:40:39;;;;;;;7.68;4.25;;;;;;;0.95;62.22;98018.19;5014670;28;20669;-76
2021/03/20 04:43:05;;;;;;;6.88;4.30;;;;;;;1.24;61.86;98015.88;5007983;28;20399;-76
2021/03/20 04:45:47;;;;;;;6.93;4.85;;;;;;;1.15;61.58;98016.88;5025128;28;20041;-76
2021/03/20 04:48:18;;;;;;;9.57;6.40;;;;;;;1.26;61.14;98011.38;5024588;28;20087;-76
2021/03/20 04:50:50;;;;;;;7.05;4.45;;;;;;;1.29;60.99;98002.59;5006568;28;20117;-76
2021/03/20 04:53:16;;;;;;;7.15;4.40;;;;;;;1.43;61.31;98006.22;5075238;28;20082;-75
2021/03/20 04:55:41;;;;;;;7.57;4.10;;;;;;;1.44;61.26;98018.06;5072692;28;20397;-75
2021/03/20 04:58:23;;;;;;;8.43;4.80;;;;;;;1.19;61.67;98020.72;5056374;28;20038;-75
2021/03/20 05:00:57;;;;;;;10.02;5.50;;;;;;;1.19;61.58;98020.72;5076466;28;20028;-75
2021/03/20 05:03:38;;;;;;;8.27;4.85;;;;;;;1.12;61.97;98018.00;5071960;28;20072;-76
2021/03/20 05:06:12;;;;;;;8.13;5.00;;;;;;;1.18;61.45;98019.09;5062707;28;20081;-75
2021/03/20 05:08:43;;;;;;;11.25;5.38;;;;;;;1.18;61.17;98010.59;5086187;28;20516;-75
2021/03/20 05:11:08;;;;;;;8.23;4.88;;;;;;;1.29;61.47;98026.47;5047346;28;20074;-75
2021/03/20 05:13:40;;;;;;;7.15;4.47;;;;;;;1.03;61.86;98023.28;5087584;28;20060;-75
2021/03/20 05:16:15;;;;;;;7.38;4.60;;;;;;;0.99;62.07;98033.06;5049105;28;20024;-75
2021/03/20 05:18:41;;;;;;;6.38;4.38;;;;;;;1.03;62.01;98039.50;5089267;28;20039;-75
2021/03/20 05:21:06;;;;;;;8.10;3.95;;;;;;;0.99;61.69;98047.66;5060607;28;20119;-75
2021/03/20 05:23:31;;;;;;;8.00;4.05;;;;;;;0.96;62.10;98041.09;5063648;28;20044;-75
2021/03/20 05:25:59;;;;;;;5.38;3.55;;;;;;;1.01;62.18;98050.88;5044147;28;20107;-75
2021/03/20 05:28:24;;;;;;;5.72;3.33;;;;;;;0.98;62.41;98052.00;5070218;28;20054;-75
2021/03/20 05:30:50;;;;;;;6.05;3.90;;;;;;;0.96;62.32;98042.84;5088882;28;20117;-75
2021/03/20 05:33:15;;;;;;;7.95;4.10;;;;;;;0.98;62.15;98056.31;5085253;28;20447;-75
2021/03/20 05:35:40;;;;;;;8.45;3.88;;;;;;;0.94;62.21;98048.13;5065464;28;20028;-75
2021/03/20 05:38:06;;;;;;;6.93;3.55;;;;;;;0.92;62.21;98058.56;5078749;28;20152;-75
2021/03/20 05:40:33;;;;;;;12.45;4.43;;;;;;;0.82;61.60;98067.38;5055513;28;20020;-75
2021/03/20 05:43:14;;;;;;;8.45;4.10;;;;;;;0.81;62.61;98066.56;5054596;28;20050;-75
2021/03/20 05:46:13;;;;;;;7.10;4.00;;;;;;;0.72;62.23;98076.03;5080410;28;20055;-75
2021/03/20 05:48:44;;;;;;;7.78;4.28;;;;;;;0.79;62.66;98073.63;5079940;28;20266;-75
2021/03/20 05:51:59;;;;;;;8.43;3.83;;;;;;;0.71;63.02;98078.75;5071748;28;20035;-75
2021/03/20 05:54:58;;;;;;;7.75;3.95;;;;;;;0.88;62.34;98052.16;5072078;28;20432;-75
2021/03/20 05:57:44;;;;;;;6.78;4.30;;;;;;;1.26;61.77;98064.47;5064846;28;20067;-75
2021/03/20 06:00:16;;;;;;;7.22;4.78;;;;;;;1.09;62.52;98063.69;5054667;28;20248;-75
2021/03/20 06:03:00;;;;;;;8.02;4.93;;;;;;;1.22;62.95;98066.56;5059473;28;20040;-75
2021/03/20 06:05:31;;;;;;;8.07;4.63;;;;;;;1.34;62.27;98068.78;5082740;28;20040;-75
2021/03/20 06:08:15;;;;;;;9.27;5.88;;;;;;;1.20;62.69;98075.38;5081730;28;20044;-75
2021/03/20 06:10:58;;;;;;;13.13;7.93;;;;;;;1.10;63.28;98085.81;5084778;28;20081;-75
2021/03/20 06:13:45;;;;;;;8.20;5.47;;;;;;;1.13;62.34;98095.72;5053180;28;20032;-75
2021/03/20 06:16:23;;;;;;;12.90;6.22;;;;;;;1.45;62.82;98089.75;5070214;28;20051;-75
2021/03/20 06:18:51;;;;;;;8.13;5.18;;;;;;;1.48;62.47;98086.09;5087374;28;20028;-75
2021/03/20 06:21:25;;;;;;;8.98;4.90;;;;;;;1.56;62.06;98086.06;5072186;28;20043;-75
2021/03/20 06:24:28;;;;;;;9.67;5.17;;;;;;;1.46;62.56;98088.03;5057559;28;20043;-75
2021/03/20 06:26:54;;;;;;;10.15;4.82;;;;;;;1.82;62.33;98074.78;5086518;28;20034;-75
2021/03/20 06:29:36;;;;;;;9.55;4.60;;;;;;;1.92;62.00;98077.94;5070244;28;20031;-75
2021/03/20 06:32:13;;;;;;;7.95;4.88;;;;;;;1.76;62.25;98072.84;5054251;28;20028;-75
2021/03/20 06:34:47;;;;;;;9.25;4.95;;;;;;;1.77;62.17;98075.25;5063829;28;20023;-75
2021/03/20 06:37:17;;;;;;;9.43;5.30;;;;;;;1.91;62.37;98084.03;5048330;28;20033;-75
2021/03/20 06:40:10;;;;;;;9.73;5.65;;;;;;;1.83;62.68;98096.91;5065592;28;20390;-75
2021/03/20 06:42:37;;;;;;;8.88;5.30;;;;;;;2.13;61.77;98087.66;5070714;28;20032;-75
2021/03/20 06:45:16;;;;;;;9.05;5.15;;;;;;;2.03;61.70;98092.19;5062238;28;20040;-75
2021/03/20 06:47:45;;;;;;;10.30;6.32;;;;;;;2.13;61.52;98099.69;5062470;28;20023;-75
2021/03/20 06:50:21;;;;;;;10.15;5.57;;;;;;;2.01;61.72;98109.53;5063733;28;20020;-75
2021/03/20 06:52:50;;;;;;;11.70;5.85;;;;;;;2.13;61.50;98121.03;5068547;28;20474;-75
2021/03/20 06:55:24;;;;;;;9.65;5.88;;;;;;;2.11;61.94;98119.59;5052893;28;20125;-75
2021/03/20 06:57:50;;;;;;;10.85;6.38;;;;;;;2.38;61.19;98121.75;5069475;28;20035;-75
2021/03/20 07:00:32;;;;;;;10.77;6.68;;;;;;;2.27;62.03;98124.69;5069200;28;20428;-75
2021/03/20 07:03:17;;;;;;;10.05;5.93;;;;;;;2.56;61.15;98128.41;5066702;28;20585;-75
2021/03/20 07:05:56;;;;;;;;;;;;;;;2.14;62.51;98137.25;5045404;28;20573;-75
2021/03/20 07:08:43;;;;;;;8.43;5.13;;;;;;;2.49;61.47;98130.84;5040304;28;19971;-75
2021/03/20 07:11:39;;;;;;;9.82;5.47;;;;;;;2.34;60.78;98135.09;5080419;28;20036;-75
2021/03/20 07:14:08;;;;;;;8.98;5.40;;;;;;;2.30;61.00;98142.34;5085967;28;20127;-76
2021/03/20 07:16:57;;;;;;;8.65;5.25;;;;;;;2.15;62.16;98142.22;5062725;28;20024;-76
2021/03/20 07:19:23;;;;;;;14.73;5.45;;;;;;;2.72;61.28;98124.94;5068712;28;20020;-76
2021/03/20 07:21:57;;;;;;;10.85;5.55;;;;;;;2.62;60.25;98130.28;5085570;28;20058;-76
2021/03/20 07:24:39;;;;;;;9.38;5.05;;;;;;;2.43;60.20;98124.63;5080856;28;20539;-75
2021/03/20 07:27:21;;;;;;;12.13;7.75;;;;;;;2.25;61.08;98127.41;5086562;28;20383;-76
2021/03/20 07:29:58;;;;;;;8.93;5.35;;;;;;;2.56;60.08;98128.41;5073916;28;20070;-76
2021/03/20 07:32:26;;;;;;;8.80;4.63;;;;;;;2.71;59.35;98123.31;5073879;28;20047;-76
2021/03/20 07:34:56;;;;;;;6.63;4.47;;;;;;;3.34;59.25;98137.69;5091708;28;20028;-76
2021/03/20 07:37:27;;;;;;;8.13;4.28;;;;;;;3.22;58.28;98140.81;5050865;28;20119;-76
2021/03/20 07:39:54;;;;;;;8.07;4.63;;;;;;;3.45;57.80;98146.75;5056547;28;20055;-76
2021/03/20 07:42:25;;;;;;;8.35;5.00;;;;;;;3.59;57.95;98145.16;5090075;28;20032;-76
2021/03/20 07:45:04;;;;;;;8.70;4.28;;;;;;;3.34;58.13;98142.00;5071804;28;20416;-76
2021/03/20 07:47:35;;;;;;;6.63;3.55;;;;;;;3.72;57.44;98147.16;5073072;28;20165;-76
2021/03/20 07:50:09;;;;;;;7.45;3.90;;;;;;;4.07;56.21;98153.38;5073090;28;20047;-76
2021/03/20 07:52:35;;;;;;;5.93;3.70;;;;;;;4.62;56.15;98147.88;5089753;28;20482;-76
2021/03/20 07:55:14;;;;;;;5.63;3.40;;;;;;;3.94;56.99;98148.03;5072963;28;20084;-76
2021/03/20 07:57:50;;;;;;;6.57;3.78;;;;;;;3.99;56.22;98152.66;5052753;28;20035;-77
2021/03/20 08:00:30;;;;;;;6.57;3.88;;;;;;;4.19;56.13;98160.66;5084003;28;20086;-76
2021/03/20 08:03:06;;;;;;;5.85;3.75;;;;;;;4.06;55.57;98159.53;5072653;28;20430;-76
2021/03/20 08:05:36;;;;;;;4.75;3.03;;;;;;;4.37;55.32;98162.88;5089977;28;20032;-77
2021/03/20 08:08:22;;;;;;;4.45;3.13;;;;;;;3.72;55.75;98160.03;5069311;28;20024;-77
2021/03/20 08:10:52;;;;;;;5.43;3.33;;;;;;;4.11;55.87;98174.44;5069851;28;20085;-76
2021/03/20 08:13:23;;;;;;;7.90;4.28;;;;;;;4.09;56.13;98171.25;5082364;28;20060;-76
2021/03/20 08:15:55;;;;;;;4.93;3.10;;;;;;;3.80;55.65;98172.81;5084439;28;20024;-77
2021/03/20 08:18:23;;;;;;;4.85;3.25;;;;;;;4.16;55.42;98184.22;5072787;28;20482;-76
2021/03/20 08:21:10;;;;;;;5.78;3.25;;;;;;;3.97;56.45;98185.53;5048639;28;20544;-76
2021/03/20 08:24:13;;;;;;;4.72;2.88;;;;;;;4.04;54.90;98194.97;5058957;28;20114;-77
2021/03/20 08:26:57;;;;;;;5.18;3.38;;;;;;;3.77;56.34;98192.97;5087462;28;20423;-77
2021/03/20 08:29:39;;;;;;;6.38;3.53;;;;;;;3.87;54.48;98196.09;5088070;28;20040;-77
2021/03/20 08:32:27;;;;;;;5.95;3.30;;;;;;;3.97;55.06;98195.84;5066119;28;20039;-77
2021/03/20 08:35:17;;;;;;;8.95;3.95;;;;;;;4.14;54.98;98199.84;5087877;28;20058;-77
2021/03/20 08:37:52;;;;;;;4.40;2.42;;;;;;;4.48;53.82;98201.09;5081711;28;20089;-77
2021/03/20 08:40:51;;;;;;;6.07;2.95;;;;;;;4.78;53.42;98191.53;5071946;28;20115;-77
2021/03/20 08:43:22;;;;;;;5.22;2.67;;;;;;;5.17;51.40;98197.28;5002232;28;20473;-77
2021/03/20 08:45:58;;;;;;;4.15;2.35;;;;;;;4.08;52.13;98200.59;5072795;28;20479;-76
2021/03/20 08:48:45;;;;;;;5.30;3.10;;;;;;;4.23;53.33;98206.53;5090976;28;20104;-77
2021/03/20 08:51:53;;;;;;;5.43;2.70;;;;;;;4.68;51.99;98204.72;5073552;28;20417;-77
2021/03/20 08:55:03;;;;;;;3.60;1.92;;;;;;;4.53;51.15;98209.09;5056898;28;20040;-77
2021/03/20 08:58:03;;;;;;;2.58;1.73;;;;;;;4.27;50.38;98212.94;5085717;28;20142;-77
2021/03/20 09:00:34;;;;;;;6.65;3.50;;;;;;;4.39;49.74;98215.88;5045144;28;20048;-78
2021/03/20 09:03:04;;;;;;;4.60;2.25;;;;;;;3.90;49.00;98217.16;5070369;28;20039;-76
2021/03/20 09:05:35;;;;;;;5.95;3.47;;;;;;;3.92;49.10;98206.69;5060591;28;20040;-76
2021/03/20 09:08:05;;;;;;;3.72;1.98;;;;;;;3.97;49.77;98203.59;5083267;28;20028;-77
2021/03/20 09:10:39;;;;;;;5.00;2.47;;;;;;;3.75;49.89;98206.03;5087134;28;20031;-77
2021/03/20 09:13:13;;;;;;;11.20;5.88;;;;;;;4.17;50.01;98206.44;5051934;28;20470;-77
2021/03/20 09:15:45;;;;;;;7.93;4.07;;;;;;;4.98;49.59;98212.38;5069367;28;20482;-77
2021/03/20 09:18:13;;;;;;;3.63;2.08;;;;;;;5.28;48.33;98226.97;5066677;28;20028;-77
2021/03/20 09:20:50;;;;;;;3.50;2.35;;;;;;;5.54;47.47;98216.09;5049861;28;20025;-78
2021/03/20 09:23:25;;;;;;;4.60;2.45;;;;;;;5.51;47.96;98224.22;5056780;28;20081;-77
2021/03/20 09:25:56;;;;;;;4.57;1.63;;;;;;;5.18;47.09;98225.50;5073117;28;20028;-77
2021/03/20 09:28:28;;;;;;;2.85;1.85;;;;;;;4.53;46.61;98224.56;5065633;28;20390;-76
2021/03/20 09:31:02;;;;;;;4.55;2.20;;;;;;;4.41;47.94;98211.31;5056632;28;20081;-77
2021/03/20 09:33:27;;;;;;;4.75;2.70;;;;;;;4.57;48.01;98206.94;5065011;28;20036;-77
2021/03/20 09:35:53;;;;;;;4.88;2.28;;;;;;;4.60;47.09;98209.19;5069320;28;20073;-77
2021/03/20 09:38:36;;;;;;;3.88;2.00;;;;;;;4.98;47.11;98202.06;5089129;28;20359;-78
2021/03/20 09:41:08;;;;;;;6.13;2.97;;;;;;;5.67;45.96;98200.69;5080983;28;20492;-78
2021/03/20 09:43:38;;;;;;;2.70;1.52;;;;;;;5.21;44.72;98206.28;5068251;28;20036;-78
2021/03/20 09:46:29;;;;;;;4.40;2.80;;;;;;;5.13;45.40;98204.59;5055864;28;20323;-77
2021/03/20 09:48:56;;;;;;;5.07;2.95;;;;;;;5.62;44.41;98195.28;5090168;28;20059;-78
2021/03/20 09:51:54;;;;;;;4.00;1.90;;;;;;;5.81;43.60;98201.63;5065864;28;20031;-77
2021/03/20 09:54:24;;;;;;;2.40;1.90;;;;;;;5.58;44.14;98212.16;5088685;28;20114;-77
2021/03/20 09:56:54;;;;;;;3.55;1.70;;;;;;;5.20;44.37;98204.66;5072328;28;20030;-78
2021/03/20 09:59:32;;;;;;;5.32;1.88;;;;;;;5.20;44.72;98207.25;5083042;28;20082;-77
2021/03/20 10:02:19;;;;;;;3.75;2.20;;;;;;;5.81;44.37;98197.22;5068451;28;20060;-77
2021/03/20 10:04:52;;;;;;;3.47;1.80;;;;;;;5.01;45.18;98206.06;5058181;28;20540;-77
2021/03/20 10:07:22;;;;;;;2.95;1.63;;;;;;;5.02;44.83;98205.06;5080858;28;20175;-77
2021/03/20 10:10:04;;;;;;;3.13;1.80;;;;;;;4.81;44.98;98190.38;5071575;28;20427;-77
2021/03/20 10:12:46;;;;;;;4.03;1.73;;;;;;;5.64;43.92;98193.34;5088734;28;20016;-78
2021/03/20 10:15:35;;;;;;;3.97;2.50;;;;;;;4.37;45.57;98188.66;5088291;28;20838;-77
2021/03/20 10:18:04;;;;;;;3.03;1.90;;;;;;;4.56;44.97;98192.44;5088195;28;20024;-77
2021/03/20 10:20:37;;;;;;;3.08;1.98;;;;;;;5.31;44.48;98193.84;5088407;28;20056;-78
2021/03/20 10:23:10;;;;;;;4.35;2.55;;;;;;;4.42;44.43;98188.91;5043070;28;20082;-76
2021/03/20 10:25:43;;;;;;;6.25;2.40;;;;;;;5.14;43.51;98182.16;5042831;28;20032;-78
2021/03/20 10:28:09;;;;;;;7.32;4.18;;;;;;;4.93;44.20;98181.16;5045086;28;20062;-78
2021/03/20 10:30:38;;;;;;;3.15;1.90;;;;;;;5.34;44.61;98175.38;5066816;28;20562;-78
2021/03/20 10:33:07;;;;;;;3.80;2.05;;;;;;;5.42;42.36;98169.31;5066283;28;20089;-77
2021/03/20 10:35:38;;;;;;;5.90;3.45;;;;;;;5.88;40.73;98179.19;5088013;28;20058;-77
2021/03/20 10:38:20;;;;;;;3.45;2.40;;;;;;;5.45;40.69;98187.03;5076812;28;20036;-77
2021/03/20 10:40:59;;;;;;;5.50;2.58;;;;;;;6.32;40.28;98182.44;5087881;28;20032;-77
2021/03/20 10:43:25;;;;;;;4.82;2.85;;;;;;;7.09;39.42;98180.50;5036822;28;20040;-78
2021/03/20 10:45:50;;;;;;;4.35;2.33;;;;;;;7.28;37.31;98184.09;5050912;28;20058;-77
2021/03/20 10:48:19;;;;;;;2.00;1.25;;;;;;;6.44;39.56;98180.09;5054387;28;20032;-78
2021/03/20 10:50:47;;;;;;;3.25;2.22;;;;;;;7.06;38.40;98191.25;5072097;28;20056;-78
2021/03/20 10:53:20;;;;;;;3.90;1.77;;;;;;;6.94;39.80;98188.47;5064280;28;20322;-77
2021/03/20 10:55:49;;;;;;;2.50;2.00;;;;;;;6.77;38.20;98188.00;5049209;28;20036;-77
2021/03/20 10:58:21;;;;;;;5.32;3.15;;;;;;;6.84;38.33;98185.44;5071296;28;20036;-78
2021/03/20 11:00:50;;;;;;;2.67;1.58;;;;;;;7.46;36.58;98173.97;5055869;28;20119;-78
2021/03/20 11:03:38;;;;;;;1.80;1.00;;;;;;;7.32;36.93;98183.53;5047511;28;20111;-76
2021/03/20 11:06:13;;;;;;;3.38;1.80;;;;;;;7.14;36.32;98172.94;5049101;28;20071;-78
2021/03/20 11:08:40;;;;;;;3.45;1.13;;;;;;;7.76;34.98;98172.75;5056226;28;20302;-78
2021/03/20 11:11:30;;;;;;;2.72;1.70;;;;;;;7.15;34.98;98161.59;5057501;28;20028;-77
2021/03/20 11:14:06;;;;;;;2.90;1.90;;;;;;;7.60;34.96;98166.97;5082207;28;20379;-77
2021/03/20 11:16:32;;;;;;;3.45;1.90;;;;;;;8.46;37.32;98161.84;5047827;28;20127;-78
2021/03/20 11:19:05;;;;;;;2.20;1.10;;;;;;;8.78;35.03;98176.47;5053346;28;20065;-78
2021/03/20 11:21:38;;;;;;;3.85;1.70;;;;;;;8.08;33.58;98176.28;5062482;28;20027;-78
2021/03/20 11:24:29;;;;;;;2.28;1.00;;;;;;;9.04;32.64;98169.53;5060376;28;20071;-78
2021/03/20 11:26:55;;;;;;;2.03;1.35;;;;;;;9.44;31.37;98164.06;5058573;28;20049;-78
2021/03/20 11:29:31;;;;;;;2.47;1.13;;;;;;;9.00;31.75;98166.56;5055256;28;20039;-78
2021/03/20 11:32:03;;;;;;;;;;;;;;;8.95;32.28;98152.63;5067524;28;20119;-78
2021/03/20 11:34:35;;;;;;;1.75;1.00;;;;;;;9.35;31.87;98160.91;5071735;28;19911;-78
2021/03/20 11:37:02;;;;;;;2.50;1.25;;;;;;;9.38;31.38;98157.91;5072235;28;20498;-78
2021/03/20 11:39:30;;;;;;;2.72;1.10;;;;;;;10.20;30.92;98156.94;5074684;28;20036;-78
2021/03/20 11:42:09;;;;;;;2.40;1.40;;;;;;;10.14;31.22;98155.19;5041732;28;20031;-78
2021/03/20 11:44:41;;;;;;;2.00;1.05;;;;;;;10.29;29.02;98163.44;5085118;28;20523;-78
2021/03/20 11:47:28;;;;;;;1.90;1.27;;;;;;;9.92;29.99;98166.06;5055356;28;20032;-78
2021/03/20 11:49:56;;;;;;;2.00;1.15;;;;;;;10.30;30.81;98167.66;5050073;28;20074;-79
2021/03/20 11:52:49;;;;;;;1.83;1.20;;;;;;;10.37;29.28;98164.22;5077415;28;20081;-78
2021/03/20 11:55:21;;;;;;;1.75;0.98;;;;;;;12.11;26.29;98160.59;5051271;28;20036;-78
2021/03/20 11:57:48;;;;;;;2.83;1.20;;;;;;;12.73;25.96;98153.94;5088360;28;20028;-78
2021/03/20 12:00:46;;;;;;;1.40;1.17;;;;;;;12.45;27.84;98152.13;5087521;28;20028;-78
2021/03/20 12:03:33;;;;;;;1.90;0.90;;;;;;;11.18;29.85;98152.50;5015747;28;20048;-78
2021/03/20 12:06:31;;;;;;;2.70;1.60;;;;;;;11.51;26.42;98134.75;5041806;28;20055;-78
2021/03/20 12:08:59;;;;;;;2.25;1.50;;;;;;;11.44;28.25;98145.28;5015184;28;20036;-78
2021/03/20 12:11:42;;;;;;;1.48;1.25;;;;;;;10.70;29.72;98140.34;5038302;28;20063;-78
2021/03/20 12:14:34;;;;;;;1.27;1.00;;;;;;;11.05;27.91;98137.06;5068460;28;20039;-78
2021/03/20 12:17:40;;;;;;;1.63;1.10;;;;;;;11.53;29.64;98132.69;5056821;28;20020;-78